Observation data for Roaring Springs on 08/14/2019      Previous  Date  Next       Current Mesonet Observations  Soil Data  Daily Summary Page  Observations in Plain Language
KRRS 140500Z 05005KT 25/19 A301 RMK A01 T02460193  RH  077%=      5-min Rain = 0
KRRS 140505Z 03005KT 24/19 A301 RMK A01 T02440193  RH  077%=      5-min Rain = 0
KRRS 140510Z 03005KT 24/19 A301 RMK A01 T02410192  RH  079%=      5-min Rain = 0
KRRS 140515Z 02006KT 24/19 A3011 RMK A01 T02380192  RH  080%=      5-min Rain = 0
KRRS 140520Z 02005KT 24/19 A3011 RMK A01 T02370191  RH  080%=      5-min Rain = 0
KRRS 140525Z 03006KT 24/19 A3011 RMK A01 T02370192  RH  080%=      5-min Rain = 0
KRRS 140530Z 02007KT 24/19 A3011 RMK A01 T02370192  RH  080%=      5-min Rain = 0
KRRS 140535Z 03007KT 24/19 A3011 RMK A01 T02370192  RH  081%=      5-min Rain = 0
KRRS 140540Z 04007KT 24/19 A301 RMK A01 T02360193  RH  081%=      5-min Rain = 0
KRRS 140545Z 05007KT 24/19 A301 RMK A01 T02370193  RH  081%=      5-min Rain = 0
KRRS 140550Z 04006KT 24/19 A301 RMK A01 T02380193  RH  080%=      5-min Rain = 0
KRRS 140555Z 04006KT 24/19 A301 RMK A01 T02380193  RH  080%=      5-min Rain = 0
KRRS 140600Z 04006KT 24/19 A301 RMK A01 T02360192  RH  081%=      5-min Rain = 0
KRRS 140605Z 04007KT 23/19 A3011 RMK A01 T02340192  RH  082%=      5-min Rain = 0
KRRS 140610Z 03008KT 23/19 A3011 RMK A01 T02330192  RH  082%=      5-min Rain = 0
KRRS 140615Z 03008KT 23/19 A3012 RMK A01 T02320192  RH  082%=      5-min Rain = 0
KRRS 140620Z 03008KT 23/19 A3013 RMK A01 T02330193  RH  083%=      5-min Rain = 0
KRRS 140625Z 03008KT 23/20 A3013 RMK A01 T02340195  RH  083%=      5-min Rain = 0
KRRS 140630Z 03008KT 24/20 A3013 RMK A01 T02350195  RH  083%=      5-min Rain = 0
KRRS 140635Z 03008KT 24/20 A3014 RMK A01 T02360196  RH  083%=      5-min Rain = 0
KRRS 140640Z 03007KT 24/20 A3013 RMK A01 T02370196  RH  083%=      5-min Rain = 0
KRRS 140645Z 03006KT 24/20 A3013 RMK A01 T02360196  RH  083%=      5-min Rain = 0
KRRS 140650Z 04006KT 23/20 A3013 RMK A01 T02340196  RH  084%=      5-min Rain = 0
KRRS 140655Z 04007KT 23/20 A3013 RMK A01 T02320196  RH  085%=      5-min Rain = 0
KRRS 140700Z 03007KT 23/20 A3013 RMK A01 T02310195  RH  085%=      5-min Rain = 0
KRRS 140705Z 03007KT 23/20 A3013 RMK A01 T02300195  RH  086%=      5-min Rain = 0
KRRS 140710Z 03008KT 23/20 A3014 RMK A01 T02290196  RH  086%=      5-min Rain = 0
KRRS 140715Z 04009KT 23/20 A3013 RMK A01 T02300196  RH  086%=      5-min Rain = 0
KRRS 140720Z 04008KT 23/20 A3012 RMK A01 T02310196  RH  085%=      5-min Rain = 0
KRRS 140725Z 04007KT 23/20 A3012 RMK A01 T02310195  RH  085%=      5-min Rain = 0
KRRS 140730Z 04008KT 23/20 A3013 RMK A01 T02310195  RH  085%=      5-min Rain = 0
KRRS 140735Z 04008KT 23/19 A3012 RMK A01 T02300194  RH  085%=      5-min Rain = 0
KRRS 140740Z 04007KT 23/19 A3012 RMK A01 T02300194  RH  085%=      5-min Rain = 0
KRRS 140745Z 04007KT 23/19 A3012 RMK A01 T02280194  RH  085%=      5-min Rain = 0
KRRS 140750Z 04006KT 23/19 A3011 RMK A01 T02270193  RH  086%=      5-min Rain = 0
KRRS 140755Z 04005KT 23/19 A3011 RMK A01 T02250193  RH  087%=      5-min Rain = 0
KRRS 140800Z 04005KT 22/19 A3011 RMK A01 T02230192  RH  087%=      5-min Rain = 0
KRRS 140805Z 05005KT 22/19 A3011 RMK A01 T02220192  RH  088%=      5-min Rain = 0
KRRS 140810Z 06005KT 22/19 A3011 RMK A01 T02220191  RH  087%=      5-min Rain = 0
KRRS 140815Z 05004KT 22/19 A3011 RMK A01 T02210191  RH  088%=      5-min Rain = 0
KRRS 140820Z 06004KT 22/19 A3011 RMK A01 T02210191  RH  088%=      5-min Rain = 0
KRRS 140825Z 07003KT 22/19 A3011 RMK A01 T02210190  RH  087%=      5-min Rain = 0
KRRS 140830Z 06003KT 22/19 A3011 RMK A01 T02220190  RH  087%=      5-min Rain = 0
KRRS 140835Z 06004KT 22/19 A3011 RMK A01 T02210190  RH  087%=      5-min Rain = 0
KRRS 140840Z 07003KT 22/19 A3011 RMK A01 T02210190  RH  087%=      5-min Rain = 0
KRRS 140845Z 03007KT 22/19 A3012 RMK A01 T02200189  RH  087%=      5-min Rain = 0
KRRS 140850Z 04007KT 22/19 A3012 RMK A01 T02180189  RH  088%=      5-min Rain = 0
KRRS 140855Z 03006KT 22/19 A3012 RMK A01 T02180189  RH  088%=      5-min Rain = 0
KRRS 140900Z 02007KT 22/19 A3012 RMK A01 T02170189  RH  089%=      5-min Rain = 0
KRRS 140905Z 02007KT 22/19 A3012 RMK A01 T02170190  RH  089%=      5-min Rain = 0
KRRS 140910Z 02008KT 22/19 A3012 RMK A01 T02180190  RH  089%=      5-min Rain = 0
KRRS 140915Z 01008KT 22/19 A3012 RMK A01 T02180190  RH  089%=      5-min Rain = 0
KRRS 140920Z 02010KT 22/19 A3012 RMK A01 T02180189  RH  089%=      5-min Rain = 0
KRRS 140925Z 02010KT 22/19 A3012 RMK A01 T02190189  RH  088%=      5-min Rain = 0
KRRS 140930Z 02011KT 22/19 A3012 RMK A01 T02190190  RH  088%=      5-min Rain = 0
KRRS 140935Z 02011KT 22/19 A3013 RMK A01 T02190190  RH  088%=      5-min Rain = 0
KRRS 140940Z 02009G14KT 22/19 A3013 RMK A01 T02180189  RH  089%=      5-min Rain = 0
KRRS 140945Z 02010G15KT 22/19 A3014 RMK A01 T02170189  RH  089%=      5-min Rain = 0
KRRS 140950Z 02009G14KT 22/19 A3014 RMK A01 T02160188  RH  089%=      5-min Rain = 0
KRRS 140955Z 02011KT 22/19 A3014 RMK A01 T02150185  RH  088%=      5-min Rain = 0
KRRS 141000Z 02011G17KT 21/18 A3015 RMK A01 T02140182  RH  087%=      5-min Rain = 0
KRRS 141005Z 02011KT 21/18 A3015 RMK A01 T02140182  RH  086%=      5-min Rain = 0
KRRS 141010Z 02010G15KT 21/18 A3015 RMK A01 T02120178  RH  085%=      5-min Rain = 0
KRRS 141015Z 02011KT 21/18 A3015 RMK A01 T02100175  RH  085%=      5-min Rain = 0
KRRS 141020Z 02011G16KT 21/17 A3015 RMK A01 T02080174  RH  085%=      5-min Rain = 0
KRRS 141025Z 01012KT 21/17 A3015 RMK A01 T02060169  RH  083%=      5-min Rain = 0
KRRS 141030Z 02010KT 20/17 A3016 RMK A01 T02030166  RH  083%=      5-min Rain = 0
KRRS 141035Z 02011KT 20/16 A3016 RMK A01 T02010164  RH  083%=      5-min Rain = 0
KRRS 141040Z 02011KT 20/16 A3016 RMK A01 T02000164  RH  084%=      5-min Rain = 0
KRRS 141045Z 01011KT 20/16 A3016 RMK A01 T01990164  RH  084%=      5-min Rain = 0
KRRS 141050Z 02011KT 20/16 A3017 RMK A01 T01980164  RH  085%=      5-min Rain = 0
KRRS 141055Z 01011G16KT 20/16 A3017 RMK A01 T01970163  RH  085%=      5-min Rain = 0
KRRS 141100Z 01010KT 20/16 A3017 RMK A01 T01960163  RH  085%=      5-min Rain = 0
KRRS 141105Z 01010G15KT 20/16 A3017 RMK A01 T01950162  RH  086%=      5-min Rain = 0
KRRS 141110Z 01009KT 19/16 A3017 RMK A01 T01930162  RH  086%=      5-min Rain = 0
KRRS 141115Z 00009KT 19/16 A3016 RMK A01 T01910161  RH  087%=      5-min Rain = 0
KRRS 141120Z 00009KT 19/16 A3016 RMK A01 T01900160  RH  087%=      5-min Rain = 0
KRRS 141125Z 00009KT 19/16 A3016 RMK A01 T01890160  RH  087%=      5-min Rain = 0
KRRS 141130Z 01009KT 19/16 A3016 RMK A01 T01880160  RH  087%=      5-min Rain = 0
KRRS 141135Z 36010KT 19/16 A3017 RMK A01 T01880160  RH  088%=      5-min Rain = 0
KRRS 141140Z 36009KT 19/16 A3017 RMK A01 T01880160  RH  088%=      5-min Rain = 0
KRRS 141145Z 00010KT 19/16 A3017 RMK A01 T01880160  RH  088%=      5-min Rain = 0
KRRS 141150Z 00010KT 19/16 A3017 RMK A01 T01880160  RH  088%=      5-min Rain = 0
KRRS 141155Z 36009KT 19/16 A3017 RMK A01 T01880160  RH  088%=      5-min Rain = 0
KRRS 141200Z 36009KT 19/16 A3017 RMK A01 T01880160  RH  088%=      5-min Rain = 0
KRRS 141205Z 36009KT 19/16 A3017 RMK A01 T01880160  RH  088%=      5-min Rain = 0
KRRS 141210Z 36009KT 19/16 A3017 RMK A01 T01880160  RH  088%=      5-min Rain = 0
KRRS 141215Z 35010KT 19/16 A3018 RMK A01 T01880160  RH  088%=      5-min Rain = 0
KRRS 141220Z 35010KT 19/16 A3018 RMK A01 T01880160  RH  088%=      5-min Rain = 0
KRRS 141225Z 35009KT 19/16 A3018 RMK A01 T01890160  RH  087%=      5-min Rain = 0
KRRS 141230Z 35010KT 19/16 A3018 RMK A01 T01890160  RH  087%=      5-min Rain = 0
KRRS 141235Z 35010KT 19/16 A3018 RMK A01 T01910160  RH  086%=      5-min Rain = 0
KRRS 141240Z 35011KT 19/16 A3018 RMK A01 T01920160  RH  086%=      5-min Rain = 0
KRRS 141245Z 34011KT 19/16 A3018 RMK A01 T01940161  RH  085%=      5-min Rain = 0
KRRS 141250Z 00008KT 20/16 A3018 RMK A01 T01970161  RH  084%=      5-min Rain = 0
KRRS 141255Z 36009KT 20/16 A3018 RMK A01 T01990162  RH  083%=      5-min Rain = 0
KRRS 141300Z 01011KT 20/16 A3019 RMK A01 T02010163  RH  083%=      5-min Rain = 0
KRRS 141305Z 35010KT 20/16 A3019 RMK A01 T02030163  RH  082%=      5-min Rain = 0
KRRS 141310Z 35011KT 21/16 A3018 RMK A01 T02060164  RH  081%=      5-min Rain = 0
KRRS 141315Z 00011G16KT 21/17 A3019 RMK A01 T02080165  RH  080%=      5-min Rain = 0
KRRS 141320Z 36011KT 21/17 A3019 RMK A01 T02120166  RH  079%=      5-min Rain = 0
KRRS 141325Z 36012KT 21/17 A302 RMK A01 T02130167  RH  079%=      5-min Rain = 0
KRRS 141330Z 36009KT 22/17 A302 RMK A01 T02170171  RH  079%=      5-min Rain = 0
KRRS 141335Z 36010KT 22/17 A302 RMK A01 T02220171  RH  077%=      5-min Rain = 0
KRRS 141340Z 36009KT 22/17 A302 RMK A01 T02240172  RH  076%=      5-min Rain = 0
KRRS 141345Z 36009G14KT 23/17 A302 RMK A01 T02280174  RH  076%=      5-min Rain = 0
KRRS 141350Z 00008KT 23/18 A302 RMK A01 T02310175  RH  075%=      5-min Rain = 0
KRRS 141355Z 35010G15KT 23/18 A302 RMK A01 T02300175  RH  075%=      5-min Rain = 0
KRRS 141400Z 36009KT 23/18 A302 RMK A01 T02300177  RH  076%=      5-min Rain = 0
KRRS 141405Z 01007KT 23/18 A302 RMK A01 T02340178  RH  075%=      5-min Rain = 0
KRRS 141410Z 02007KT 24/18 A302 RMK A01 T02370181  RH  075%=      5-min Rain = 0
KRRS 141415Z 02007KT 24/18 A302 RMK A01 T02410182  RH  073%=      5-min Rain = 0
KRRS 141420Z 02008KT 24/18 A3021 RMK A01 T02440184  RH  073%=      5-min Rain = 0
KRRS 141425Z 02009KT 24/18 A3021 RMK A01 T02440183  RH  073%=      5-min Rain = 0
KRRS 141430Z 01010KT 25/18 A3021 RMK A01 T02450183  RH  072%=      5-min Rain = 0
KRRS 141435Z 01011KT 25/18 A3021 RMK A01 T02460184  RH  072%=      5-min Rain = 0
KRRS 141440Z 36010G15KT 25/18 A3022 RMK A01 T02470183  RH  071%=      5-min Rain = 0
KRRS 141445Z 36010G16KT 25/18 A3022 RMK A01 T02490183  RH  071%=      5-min Rain = 0
KRRS 141450Z 01009KT 25/19 A3021 RMK A01 T02510185  RH  071%=      5-min Rain = 0
KRRS 141455Z 01010G17KT 25/18 A3021 RMK A01 T02490184  RH  071%=      5-min Rain = 0
KRRS 141500Z 00010KT 25/19 A3021 RMK A01 T02530185  RH  070%=      5-min Rain = 0
KRRS 141505Z 01010KT 26/19 A3021 RMK A01 T02550186  RH  069%=      5-min Rain = 0
KRRS 141510Z 02010KT 26/19 A3021 RMK A01 T02560187  RH  069%=      5-min Rain = 0
KRRS 141515Z 01010KT 26/19 A3021 RMK A01 T02580187  RH  068%=      5-min Rain = 0
KRRS 141520Z 03010KT 26/19 A3021 RMK A01 T02620191  RH  069%=      5-min Rain = 0
KRRS 141525Z 03009KT 27/19 A3021 RMK A01 T02650191  RH  068%=      5-min Rain = 0
KRRS 141530Z 00009KT 27/19 A3021 RMK A01 T02700191  RH  066%=      5-min Rain = 0
KRRS 141535Z 03010KT 27/19 A3021 RMK A01 T02700192  RH  066%=      5-min Rain = 0
KRRS 141540Z 03010KT 27/19 A3021 RMK A01 T02690191  RH  066%=      5-min Rain = 0
KRRS 141545Z 01009G14KT 27/19 A3021 RMK A01 T02710192  RH  065%=      5-min Rain = 0
KRRS 141550Z 02011G16KT 27/19 A3021 RMK A01 T02710191  RH  065%=      5-min Rain = 0
KRRS 141555Z 02008G13KT 27/19 A3021 RMK A01 T02710190  RH  065%=      5-min Rain = 0
KRRS 141600Z 04007G12KT 27/19 A302 RMK A01 T02740190  RH  063%=      5-min Rain = 0
KRRS 141605Z 05006G11KT 28/19 A302 RMK A01 T02760190  RH  063%=      5-min Rain = 0
KRRS 141610Z 02007KT 28/19 A3019 RMK A01 T02820189  RH  060%=      5-min Rain = 0
KRRS 141615Z 01005KT 29/19 A3019 RMK A01 T02860189  RH  059%=      5-min Rain = 0
KRRS 141620Z 03005G11KT 29/19 A3019 RMK A01 T02900187  RH  057%=      5-min Rain = 0
KRRS 141625Z 05005KT 29/19 A3018 RMK A01 T02890186  RH  057%=      5-min Rain = 0
KRRS 141630Z 07005KT 29/19 A3018 RMK A01 T02890185  RH  056%=      5-min Rain = 0
KRRS 141635Z 06005G11KT 29/19 A3018 RMK A01 T02920185  RH  055%=      5-min Rain = 0
KRRS 141640Z 07006G11KT 29/18 A3018 RMK A01 T02920183  RH  055%=      5-min Rain = 0
KRRS 141645Z 10005KT 29/19 A3017 RMK A01 T02920185  RH  055%=      5-min Rain = 0
KRRS 141650Z 10006KT 30/19 A3017 RMK A01 T02990186  RH  053%=      5-min Rain = 0
KRRS 141655Z 08007KT 30/18 A3016 RMK A01 T03010179  RH  051%=      5-min Rain = 0
KRRS 141700Z 06004G10KT 30/17 A3016 RMK A01 T03030173  RH  048%=      5-min Rain = 0
KRRS 141705Z 06007KT 31/17 A3016 RMK A01 T03100171  RH  046%=      5-min Rain = 0
KRRS 141710Z 05006G12KT 31/17 A3016 RMK A01 T03100173  RH  046%=      5-min Rain = 0
KRRS 141715Z 09007KT 32/17 A3015 RMK A01 T03150171  RH  045%=      5-min Rain = 0
KRRS 141720Z 09005KT 32/17 A3015 RMK A01 T03180168  RH  043%=      5-min Rain = 0
KRRS 141725Z 10006KT 32/17 A3015 RMK A01 T03210171  RH  043%=      5-min Rain = 0
KRRS 141730Z 09008KT 32/16 A3015 RMK A01 T03220162  RH  040%=      5-min Rain = 0
KRRS 141735Z 07009KT 33/16 A3015 RMK A01 T03250159  RH  039%=      5-min Rain = 0
KRRS 141740Z 04008KT 33/16 A3015 RMK A01 T03260162  RH  039%=      5-min Rain = 0
KRRS 141745Z 04010G16KT 33/16 A3015 RMK A01 T03280162  RH  039%=      5-min Rain = 0
KRRS 141750Z 01010G18KT 33/16 A3015 RMK A01 T03280161  RH  039%=      5-min Rain = 0
KRRS 141755Z 02011G17KT 33/16 A3015 RMK A01 T03270163  RH  039%=      5-min Rain = 0
KRRS 141800Z 05009G15KT 33/17 A3015 RMK A01 T03280165  RH  040%=      5-min Rain = 0
KRRS 141805Z 06010KT 33/16 A3015 RMK A01 T03270162  RH  039%=      5-min Rain = 0
KRRS 141810Z 05010G17KT 33/16 A3015 RMK A01 T03290160  RH  038%=      5-min Rain = 0
KRRS 141815Z 03011G16KT 33/16 A3015 RMK A01 T03290161  RH  038%=      5-min Rain = 0
KRRS 141820Z 04012KT 33/16 A3015 RMK A01 T03270162  RH  039%=      5-min Rain = 0
KRRS 141825Z 05009KT 32/16 A3015 RMK A01 T03240162  RH  040%=      5-min Rain = 0
KRRS 141830Z 05013G19KT 33/16 A3015 RMK A01 T03290162  RH  039%=      5-min Rain = 0
KRRS 141835Z 06010KT 33/16 A3015 RMK A01 T03270161  RH  039%=      5-min Rain = 0
KRRS 141840Z 05011G16KT 33/16 A3014 RMK A01 T03290162  RH  039%=      5-min Rain = 0
KRRS 141845Z 05007G15KT 33/16 A3014 RMK A01 T03290160  RH  038%=      5-min Rain = 0
KRRS 141850Z 07011G16KT 34/16 A3014 RMK A01 T03350156  RH  036%=      5-min Rain = 0
KRRS 141855Z 08009G14KT 33/16 A3014 RMK A01 T03340156  RH  036%=      5-min Rain = 0
KRRS 141900Z 06009G15KT 33/16 A3014 RMK A01 T03330158  RH  037%=      5-min Rain = 0
KRRS 141905Z 01010G16KT 34/16 A3013 RMK A01 T03350156  RH  036%=      5-min Rain = 0
KRRS 141910Z 04010G15KT 34/16 A3013 RMK A01 T03370156  RH  035%=      5-min Rain = 0
KRRS 141915Z 04011G17KT 34/16 A3013 RMK A01 T03350157  RH  036%=      5-min Rain = 0
KRRS 141920Z 05010G16KT 34/15 A3013 RMK A01 T03380154  RH  035%=      5-min Rain = 0
KRRS 141925Z 04009G18KT 33/15 A3013 RMK A01 T03330154  RH  036%=      5-min Rain = 0
KRRS 141930Z 06009G15KT 34/15 A3013 RMK A01 T03380151  RH  034%=      5-min Rain = 0
KRRS 141935Z 07009G16KT 34/15 A3013 RMK A01 T03380148  RH  033%=      5-min Rain = 0
KRRS 141940Z 07010G16KT 34/15 A3013 RMK A01 T03360152  RH  035%=      5-min Rain = 0
KRRS 141945Z 05011G17KT 34/16 A3013 RMK A01 T03350159  RH  037%=      5-min Rain = 0
KRRS 141950Z 02009G15KT 34/16 A3013 RMK A01 T03350155  RH  036%=      5-min Rain = 0
KRRS 141955Z 04011G17KT 34/16 A3012 RMK A01 T03380161  RH  037%=      5-min Rain = 0
KRRS 142000Z 05007G14KT 33/16 A3012 RMK A01 T03320160  RH  037%=      5-min Rain = 0
KRRS 142005Z 04005KT 33/16 A3012 RMK A01 T03290157  RH  037%=      5-min Rain = 0
KRRS 142010Z 03008G14KT 33/16 A3011 RMK A01 T03320157  RH  037%=      5-min Rain = 0
KRRS 142015Z 07008KT 33/16 A3011 RMK A01 T03340162  RH  038%=      5-min Rain = 0
KRRS 142020Z 05005G13KT 33/16 A301 RMK A01 T03330157  RH  037%=      5-min Rain = 0
KRRS 142025Z 05007KT 33/15 A301 RMK A01 T03340153  RH  035%=      5-min Rain = 0
KRRS 142030Z 08004G10KT 34/16 A3009 RMK A01 T03380158  RH  036%=      5-min Rain = 0
KRRS 142035Z 04007KT 34/16 A3009 RMK A01 T03390158  RH  036%=      5-min Rain = 0
KRRS 142040Z 07009G14KT 34/15 A3009 RMK A01 T03380154  RH  035%=      5-min Rain = 0
KRRS 142045Z 08007KT 34/16 A3009 RMK A01 T03360160  RH  037%=      5-min Rain = 0
KRRS 142050Z 08004KT 33/16 A3008 RMK A01 T03340162  RH  038%=      5-min Rain = 0
KRRS 142055Z 09006KT 34/16 A3008 RMK A01 T03390160  RH  036%=      5-min Rain = 0
KRRS 142100Z 08006KT 34/16 A3008 RMK A01 T03360160  RH  036%=      5-min Rain = 0
KRRS 142105Z 10006KT 34/17 A3007 RMK A01 T03400165  RH  037%=      5-min Rain = 0
KRRS 142110Z 10007G13KT 34/16 A3007 RMK A01 T03380163  RH  037%=      5-min Rain = 0
KRRS 142115Z 10007G12KT 34/16 A3007 RMK A01 T03400159  RH  036%=      5-min Rain = 0
KRRS 142120Z 06007G14KT 34/16 A3007 RMK A01 T03430163  RH  036%=      5-min Rain = 0
KRRS 142125Z 06009G14KT 35/16 A3007 RMK A01 T03470159  RH  034%=      5-min Rain = 0
KRRS 142130Z 06008G13KT 34/16 A3007 RMK A01 T03410158  RH  035%=      5-min Rain = 0
KRRS 142135Z 01009KT 34/16 A3007 RMK A01 T03420162  RH  036%=      5-min Rain = 0
KRRS 142140Z 04009KT 35/16 A3007 RMK A01 T03450161  RH  035%=      5-min Rain = 0
KRRS 142145Z 04009G15KT 34/16 A3007 RMK A01 T03430158  RH  035%=      5-min Rain = 0
KRRS 142150Z 05008KT 34/16 A3006 RMK A01 T03430155  RH  034%=      5-min Rain = 0
KRRS 142155Z 06007G13KT 35/15 A3006 RMK A01 T03450154  RH  034%=      5-min Rain = 0
KRRS 142200Z 04011KT 34/15 A3006 RMK A01 T03440154  RH  034%=      5-min Rain = 0
KRRS 142205Z 04009KT 34/15 A3006 RMK A01 T03420153  RH  034%=      5-min Rain = 0
KRRS 142210Z 01006KT 34/16 A3006 RMK A01 T03430155  RH  034%=      5-min Rain = 0
KRRS 142215Z 05009G15KT 34/16 A3006 RMK A01 T03410157  RH  035%=      5-min Rain = 0
KRRS 142220Z 03008G13KT 34/16 A3006 RMK A01 T03420157  RH  035%=      5-min Rain = 0
KRRS 142225Z 04008G13KT 34/16 A3006 RMK A01 T03420155  RH  034%=      5-min Rain = 0
KRRS 142230Z 06008KT 34/16 A3006 RMK A01 T03440157  RH  034%=      5-min Rain = 0
KRRS 142235Z 06009KT 34/15 A3006 RMK A01 T03420154  RH  034%=      5-min Rain = 0
KRRS 142240Z 02008KT 34/15 A3006 RMK A01 T03420151  RH  033%=      5-min Rain = 0
KRRS 142245Z 02007KT 34/15 A3006 RMK A01 T03410150  RH  033%=      5-min Rain = 0
KRRS 142250Z 05004KT 34/15 A3006 RMK A01 T03430151  RH  033%=      5-min Rain = 0
KRRS 142255Z 05009KT 34/16 A3005 RMK A01 T03440157  RH  034%=      5-min Rain = 0
KRRS 142300Z 07010KT 34/15 A3005 RMK A01 T03410153  RH  034%=      5-min Rain = 0
KRRS 142305Z 04008KT 34/16 A3005 RMK A01 T03400155  RH  035%=      5-min Rain = 0
KRRS 142310Z 05008KT 34/15 A3006 RMK A01 T03400154  RH  034%=      5-min Rain = 0
KRRS 142315Z 07008KT 34/15 A3006 RMK A01 T03390153  RH  034%=      5-min Rain = 0
KRRS 142320Z 07006G11KT 34/15 A3006 RMK A01 T03380153  RH  035%=      5-min Rain = 0
KRRS 142325Z 07006KT 34/15 A3006 RMK A01 T03380152  RH  034%=      5-min Rain = 0
KRRS 142330Z 08005KT 34/15 A3006 RMK A01 T03370151  RH  034%=      5-min Rain = 0
KRRS 142335Z 11002KT 34/15 A3006 RMK A01 T03360148  RH  034%=      5-min Rain = 0
KRRS 142340Z 08005KT 34/15 A3006 RMK A01 T03380149  RH  034%=      5-min Rain = 0
KRRS 142345Z 06007KT 34/15 A3006 RMK A01 T03350149  RH  034%=      5-min Rain = 0
KRRS 142350Z 06006KT 33/15 A3006 RMK A01 T03320153  RH  036%=      5-min Rain = 0
KRRS 142355Z 06007G12KT 33/15 A3006 RMK A01 T03340153  RH  035%=      5-min Rain = 0
KRRS 150000Z 07008KT 33/15 A3006 RMK A01 T03330153  RH  035%=      5-min Rain = 0
KRRS 150005Z 10008KT 33/15 A3006 RMK A01 T03330154  RH  036%=      5-min Rain = 0
KRRS 150010Z 10006KT 33/15 A3006 RMK A01 T03300153  RH  036%=      5-min Rain = 0
KRRS 150015Z 09007KT 33/15 A3006 RMK A01 T03300154  RH  036%=      5-min Rain = 0
KRRS 150020Z 06009KT 33/16 A3005 RMK A01 T03280157  RH  038%=      5-min Rain = 0
KRRS 150025Z 06009KT 33/16 A3005 RMK A01 T03260156  RH  038%=      5-min Rain = 0
KRRS 150030Z 04008KT 33/16 A3006 RMK A01 T03250157  RH  038%=      5-min Rain = 0
KRRS 150035Z 06007KT 32/16 A3006 RMK A01 T03240157  RH  038%=      5-min Rain = 0
KRRS 150040Z 08007KT 32/16 A3006 RMK A01 T03230158  RH  039%=      5-min Rain = 0
KRRS 150045Z 06007KT 32/16 A3006 RMK A01 T03210157  RH  039%=      5-min Rain = 0
KRRS 150050Z 05008KT 32/16 A3006 RMK A01 T03190156  RH  039%=      5-min Rain = 0
KRRS 150055Z 04007KT 32/16 A3006 RMK A01 T03160157  RH  040%=      5-min Rain = 0
KRRS 150100Z 04006KT 31/16 A3006 RMK A01 T03130156  RH  041%=      5-min Rain = 0
KRRS 150105Z 05006KT 31/16 A3007 RMK A01 T03110156  RH  041%=      5-min Rain = 0
KRRS 150110Z 05006KT 31/16 A3007 RMK A01 T03090155  RH  041%=      5-min Rain = 0
KRRS 150115Z 05006KT 31/15 A3007 RMK A01 T03060154  RH  042%=      5-min Rain = 0
KRRS 150120Z 05006KT 30/16 A3007 RMK A01 T03020155  RH  043%=      5-min Rain = 0
KRRS 150125Z 05006KT 30/16 A3007 RMK A01 T02970156  RH  044%=      5-min Rain = 0
KRRS 150130Z 06006KT 29/16 A3007 RMK A01 T02930156  RH  046%=      5-min Rain = 0
KRRS 150135Z 07005KT 29/16 A3008 RMK A01 T02900157  RH  046%=      5-min Rain = 0
KRRS 150140Z 06005KT 29/16 A3008 RMK A01 T02880157  RH  047%=      5-min Rain = 0
KRRS 150145Z 06005KT 29/16 A3008 RMK A01 T02860157  RH  048%=      5-min Rain = 0
KRRS 150150Z 05006KT 28/16 A3008 RMK A01 T02830157  RH  049%=      5-min Rain = 0
KRRS 150155Z 05006KT 28/16 A3008 RMK A01 T02790156  RH  049%=      5-min Rain = 0
KRRS 150200Z 06006KT 28/16 A3009 RMK A01 T02780156  RH  050%=      5-min Rain = 0
KRRS 150205Z 07007KT 28/16 A3009 RMK A01 T02780156  RH  050%=      5-min Rain = 0
KRRS 150210Z 07006KT 28/16 A3009 RMK A01 T02790157  RH  049%=      5-min Rain = 0
KRRS 150215Z 08004KT 28/16 A301 RMK A01 T02770157  RH  050%=      5-min Rain = 0
KRRS 150220Z 08005KT 28/16 A301 RMK A01 T02760158  RH  051%=      5-min Rain = 0
KRRS 150225Z 07005KT 27/16 A301 RMK A01 T02740159  RH  052%=      5-min Rain = 0
KRRS 150230Z 07006KT 27/16 A301 RMK A01 T02730161  RH  053%=      5-min Rain = 0
KRRS 150235Z 07006KT 27/16 A301 RMK A01 T02720163  RH  054%=      5-min Rain = 0
KRRS 150240Z 07005KT 27/16 A3011 RMK A01 T02720164  RH  054%=      5-min Rain = 0
KRRS 150245Z 07005KT 27/16 A3011 RMK A01 T02690164  RH  055%=      5-min Rain = 0
KRRS 150250Z 07004KT 27/17 A3011 RMK A01 T02670165  RH  056%=      5-min Rain = 0
KRRS 150255Z 06005KT 27/17 A3011 RMK A01 T02650166  RH  057%=      5-min Rain = 0
KRRS 150300Z 08005KT 26/17 A3011 RMK A01 T02640167  RH  058%=      5-min Rain = 0
KRRS 150305Z 08005KT 26/17 A3012 RMK A01 T02640168  RH  058%=      5-min Rain = 0
KRRS 150310Z 08005KT 26/17 A3012 RMK A01 T02630168  RH  059%=      5-min Rain = 0
KRRS 150315Z 08005KT 26/17 A3012 RMK A01 T02620169  RH  059%=      5-min Rain = 0
KRRS 150320Z 09004KT 26/17 A3012 RMK A01 T02610169  RH  060%=      5-min Rain = 0
KRRS 150325Z 09004KT 26/17 A3013 RMK A01 T02610169  RH  060%=      5-min Rain = 0
KRRS 150330Z 08005KT 26/17 A3013 RMK A01 T02620170  RH  060%=      5-min Rain = 0
KRRS 150335Z 08005KT 26/17 A3013 RMK A01 T02610171  RH  060%=      5-min Rain = 0
KRRS 150340Z 09005KT 26/17 A3013 RMK A01 T02600171  RH  061%=      5-min Rain = 0
KRRS 150345Z 09004KT 26/17 A3013 RMK A01 T02590171  RH  061%=      5-min Rain = 0
KRRS 150350Z 09004KT 26/17 A3013 RMK A01 T02590171  RH  062%=      5-min Rain = 0
KRRS 150355Z 08005KT 26/17 A3013 RMK A01 T02590171  RH  061%=      5-min Rain = 0
KRRS 150400Z 08005KT 26/17 A3013 RMK A01 T02590172  RH  061%=      5-min Rain = 0
KRRS 150405Z 09005KT 26/17 A3014 RMK A01 T02590172  RH  061%=      5-min Rain = 0
KRRS 150410Z 09004KT 26/17 A3014 RMK A01 T02610171  RH  061%=      5-min Rain = 0
KRRS 150415Z 09005KT 26/17 A3014 RMK A01 T02600171  RH  061%=      5-min Rain = 0
KRRS 150420Z 10005KT 26/17 A3014 RMK A01 T02600171  RH  061%=      5-min Rain = 0
KRRS 150425Z 09004KT 26/17 A3014 RMK A01 T02600171  RH  061%=      5-min Rain = 0
KRRS 150430Z 11004KT 26/17 A3014 RMK A01 T02590171  RH  061%=      5-min Rain = 0
KRRS 150435Z 11004KT 26/17 A3014 RMK A01 T02590171  RH  061%=      5-min Rain = 0
KRRS 150440Z 11003KT 26/17 A3014 RMK A01 T02580171  RH  062%=      5-min Rain = 0
KRRS 150445Z 11003KT 26/17 A3014 RMK A01 T02570171  RH  062%=      5-min Rain = 0
KRRS 150450Z 10003KT 26/17 A3014 RMK A01 T02550171  RH  063%=      5-min Rain = 0
KRRS 150455Z 10003KT 25/17 A3014 RMK A01 T02540172  RH  064%=      5-min Rain = 0

Page generated in 0.0089 seconds.